Time;durP1;ratioP1;P1;durP2;ratioP2;P2;SDS_P1;SDS_P2;PMS_P1;PMS_P2;Temp;Humidity;BMP_temperature;BMP_pressure;BME280_temperature;BME280_humidity;BME280_pressure;Samples;Min_cycle;Max_cycle;Signal;HPM_P1;HPM_P2
2022/03/23 00:02:03;;;;;;;30.13;19.37;;;5.10;99.90;;;;;;5020294;28;20203;-76
2022/03/23 00:04:29;;;;;;;31.87;18.53;;;5.10;99.90;;;;;;5017855;28;20243;-77
2022/03/23 00:06:55;;;;;;;30.23;19.23;;;5.00;99.90;;;;;;5016432;28;20262;-78
2022/03/23 00:09:21;;;;;;;29.57;19.43;;;4.90;99.90;;;;;;5015851;28;20646;-78
2022/03/23 00:11:47;;;;;;;28.90;19.00;;;4.90;99.90;;;;;;5015249;28;20242;-78
2022/03/23 00:14:12;;;;;;;33.00;20.07;;;4.80;99.90;;;;;;5016099;28;20207;-78
2022/03/23 00:16:38;;;;;;;31.07;18.73;;;4.70;99.90;;;;;;5014704;28;20191;-77
2022/03/23 00:19:07;;;;;;;32.20;19.30;;;4.60;99.90;;;;;;5015770;28;20180;-77
2022/03/23 00:21:33;;;;;;;31.37;18.07;;;4.50;99.90;;;;;;5016535;28;20576;-77
2022/03/23 00:23:59;;;;;;;26.43;17.80;;;4.40;99.90;;;;;;5015864;28;20172;-77
2022/03/23 00:26:25;;;;;;;34.47;18.23;;;4.30;99.90;;;;;;5014464;28;20187;-77
2022/03/23 00:28:51;;;;;;;27.80;18.30;;;4.20;99.90;;;;;;5015877;28;20196;-77
2022/03/23 00:31:18;;;;;;;29.60;18.07;;;4.10;99.90;;;;;;5015948;28;20180;-77
2022/03/23 00:33:44;;;;;;;29.60;17.37;;;4.20;99.90;;;;;;5015567;28;20620;-77
2022/03/23 00:36:11;;;;;;;26.00;18.53;;;4.30;99.90;;;;;;5014332;28;20214;-77
2022/03/23 00:38:38;;;;;;;27.80;17.63;;;4.40;99.90;;;;;;5015555;28;20704;-77
2022/03/23 00:41:04;;;;;;;29.40;17.80;;;4.40;99.90;;;;;;5014118;28;20258;-77
2022/03/23 00:43:30;;;;;;;28.77;18.37;;;4.20;99.90;;;;;;5015547;28;20176;-77
2022/03/23 00:45:56;;;;;;;28.63;18.67;;;4.20;99.90;;;;;;5015644;28;20191;-78
2022/03/23 00:48:22;;;;;;;25.80;17.03;;;4.20;99.90;;;;;;5014348;28;20199;-78
2022/03/23 00:50:47;;;;;;;28.53;18.07;;;4.10;99.90;;;;;;4998099;28;20639;-78
2022/03/23 00:53:13;;;;;;;25.73;17.30;;;4.10;99.90;;;;;;5014662;28;20190;-78
2022/03/23 00:55:42;;;;;;;28.40;17.47;;;4.00;99.90;;;;;;5014452;28;20327;-78
2022/03/23 00:58:09;;;;;;;30.00;16.40;;;3.90;99.90;;;;;;5013876;28;20207;-78
2022/03/23 01:00:35;;;;;;;28.73;17.47;;;3.80;99.90;;;;;;5014980;28;20206;-77
2022/03/23 01:03:00;;;;;;;29.77;17.50;;;3.80;99.90;;;;;;5014807;28;20172;-77
2022/03/23 01:05:26;;;;;;;25.70;17.20;;;3.70;99.90;;;;;;5015319;28;20527;-77
2022/03/23 01:07:52;;;;;;;26.83;17.40;;;3.70;99.90;;;;;;5020273;28;20203;-77
2022/03/23 01:10:20;;;;;;;23.40;16.50;;;3.70;99.90;;;;;;5027580;28;20307;-77
2022/03/23 01:12:47;;;;;;;26.50;17.33;;;3.60;99.90;;;;;;5024263;28;20183;-79
2022/03/23 01:15:16;;;;;;;26.77;16.60;;;3.60;99.90;;;;;;5017414;28;20183;-79
2022/03/23 01:17:42;;;;;;;30.53;17.33;;;3.60;99.90;;;;;;5016556;28;20211;-79
2022/03/23 01:20:11;;;;;;;26.20;18.23;;;3.50;99.90;;;;;;5017184;28;20544;-79
2022/03/23 01:22:38;;;;;;;25.50;16.83;;;3.40;99.90;;;;;;5015963;28;20669;-79
2022/03/23 01:25:05;;;;;;;25.60;18.00;;;3.40;99.90;;;;;;5015673;28;20602;-79
2022/03/23 01:27:31;;;;;;;31.07;18.40;;;3.50;99.90;;;;;;5015583;28;20284;-78
2022/03/23 01:29:57;;;;;;;26.20;17.73;;;3.60;99.90;;;;;;5014698;28;20226;-79
2022/03/23 01:32:23;;;;;;;26.60;18.80;;;3.60;99.90;;;;;;5016018;28;20673;-79
2022/03/23 01:34:48;;;;;;;29.77;19.63;;;3.60;99.90;;;;;;5015269;28;20180;-79
2022/03/23 01:37:14;;;;;;;33.27;19.40;;;3.60;99.90;;;;;;5014994;28;20685;-79
2022/03/23 01:39:40;;;;;;;34.80;19.20;;;3.60;99.90;;;;;;5015149;28;20179;-78
2022/03/23 01:42:07;;;;;;;37.83;20.60;;;3.50;99.90;;;;;;5014951;28;20262;-78
2022/03/23 01:44:32;;;;;;;33.73;20.37;;;3.60;99.90;;;;;;5014792;28;20180;-78
2022/03/23 01:47:08;;;;;;;29.30;19.23;;;3.60;99.90;;;;;;5015122;28;20565;-79
2022/03/23 01:49:42;;;;;;;31.33;19.77;;;3.70;99.90;;;;;;5017776;28;20630;-79
2022/03/23 01:52:11;;;;;;;37.77;21.43;;;3.70;99.90;;;;;;5019582;28;20206;-79
2022/03/23 01:54:38;;;;;;;37.90;21.13;;;3.80;99.90;;;;;;5022794;28;20176;-79
2022/03/23 01:57:05;;;;;;;34.47;19.83;;;3.80;99.90;;;;;;5022333;28;20203;-79
2022/03/23 01:59:31;;;;;;;37.70;20.30;;;3.70;99.90;;;;;;5016675;28;20201;-77
2022/03/23 02:01:57;;;;;;;33.47;20.33;;;3.50;99.90;;;;;;5013421;28;20204;-77
2022/03/23 02:04:23;;;;;;;29.90;19.77;;;3.40;99.90;;;;;;5012467;28;20180;-77
2022/03/23 02:06:49;;;;;;;29.33;19.40;;;3.30;99.90;;;;;;4996078;28;20196;-80
2022/03/23 02:09:16;;;;;;;31.43;19.30;;;3.30;99.90;;;;;;5014789;28;20180;-79
2022/03/23 02:11:42;;;;;;;33.30;20.10;;;3.10;99.90;;;;;;5014508;28;20646;-79
2022/03/23 02:14:09;;;;;;;32.50;19.80;;;3.00;99.90;;;;;;5015186;28;20225;-79
2022/03/23 02:16:42;;;;;;;31.27;19.10;;;3.00;99.90;;;;;;5016187;28;20246;-79
2022/03/23 02:19:08;;;;;;;31.20;19.20;;;3.10;99.90;;;;;;5016327;28;20184;-80
2022/03/23 02:21:34;;;;;;;25.67;18.70;;;3.20;99.90;;;;;;5016021;28;20200;-79
2022/03/23 02:24:03;;;;;;;33.33;20.07;;;3.30;99.90;;;;;;5017425;28;20179;-79
2022/03/23 02:26:29;;;;;;;27.87;18.87;;;3.40;99.90;;;;;;5017810;28;20183;-79
2022/03/23 02:28:55;;;;;;;30.17;19.07;;;3.40;99.90;;;;;;5017197;28;20214;-79
2022/03/23 02:31:21;;;;;;;34.93;19.57;;;3.50;99.90;;;;;;5017625;28;20188;-79
2022/03/23 02:33:46;;;;;;;29.57;19.97;;;3.40;99.90;;;;;;5016971;28;20183;-79
2022/03/23 02:36:12;;;;;;;33.53;19.70;;;3.30;99.90;;;;;;5016748;28;20184;-78
2022/03/23 02:38:38;;;;;;;28.67;19.97;;;3.30;99.90;;;;;;5018602;28;20260;-78
2022/03/23 02:41:04;;;;;;;29.73;19.87;;;3.20;99.90;;;;;;5017767;28;20249;-78
2022/03/23 02:43:30;;;;;;;35.27;20.70;;;3.20;99.90;;;;;;5021278;28;20251;-78
2022/03/23 02:45:55;;;;;;;36.07;21.50;;;3.10;99.90;;;;;;5024403;28;20152;-78
2022/03/23 02:48:21;;;;;;;30.47;20.73;;;3.20;99.90;;;;;;5022239;28;20214;-78
2022/03/23 02:50:47;;;;;;;29.23;19.47;;;3.20;99.90;;;;;;5019019;28;20259;-78
2022/03/23 03:01:54;;;;;;;31.93;20.67;;;2.90;99.90;;;;;;5017322;28;20580;-78
2022/03/23 03:04:21;;;;;;;29.77;19.37;;;2.90;99.90;;;;;;5017180;28;20156;-78
2022/03/23 03:06:48;;;;;;;31.73;20.40;;;2.80;99.90;;;;;;5015373;28;20215;-78
2022/03/23 03:09:17;;;;;;;32.43;20.83;;;2.80;99.90;;;;;;5016099;28;20608;-78
2022/03/23 03:11:43;;;;;;;32.37;20.03;;;2.80;99.90;;;;;;5015551;28;20195;-78
2022/03/23 03:14:10;;;;;;;32.47;20.30;;;2.80;99.90;;;;;;5016875;28;20518;-78
2022/03/23 03:16:36;;;;;;;30.27;19.83;;;2.70;99.90;;;;;;5017628;28;20184;-79
2022/03/23 03:19:05;;;;;;;33.97;20.53;;;2.60;99.90;;;;;;5016865;28;20593;-78
2022/03/23 03:21:32;;;;;;;30.77;19.47;;;2.60;99.90;;;;;;5016820;28;20199;-77
2022/03/23 03:23:58;;;;;;;32.57;20.63;;;2.60;99.90;;;;;;5016624;28;20542;-79
2022/03/23 03:26:24;;;;;;;31.93;20.73;;;2.60;99.90;;;;;;5015991;28;20646;-79
2022/03/23 03:28:50;;;;;;;33.47;20.87;;;2.50;99.90;;;;;;5016839;28;20196;-79
2022/03/23 03:31:16;;;;;;;35.00;21.87;;;2.50;99.90;;;;;;5017681;28;20638;-78
2022/03/23 03:33:42;;;;;;;32.57;20.37;;;2.40;99.90;;;;;;5016338;28;20186;-79
2022/03/23 03:36:09;;;;;;;32.83;21.07;;;2.40;99.90;;;;;;5017155;28;20589;-79
2022/03/23 03:38:36;;;;;;;32.80;19.67;;;2.40;99.90;;;;;;5017349;28;20195;-78
2022/03/23 03:41:03;;;;;;;31.37;20.27;;;2.40;99.90;;;;;;5016124;28;20208;-79
2022/03/23 03:43:31;;;;;;;32.57;20.93;;;2.30;99.90;;;;;;5015841;28;20230;-79
2022/03/23 03:45:57;;;;;;;28.80;18.90;;;2.20;99.90;;;;;;5017331;28;20255;-79
2022/03/23 03:48:23;;;;;;;34.50;19.37;;;2.10;99.90;;;;;;5016099;28;20295;-79
2022/03/23 03:50:49;;;;;;;31.00;18.53;;;2.00;99.90;;;;;;5016050;28;20203;-79
2022/03/23 03:53:15;;;;;;;34.57;19.13;;;2.00;99.90;;;;;;5017664;28;20254;-79
2022/03/23 03:55:41;;;;;;;28.00;18.97;;;1.90;99.90;;;;;;5016013;28;20184;-79
2022/03/23 03:58:08;;;;;;;34.80;20.63;;;2.00;99.90;;;;;;5015936;28;20706;-78
2022/03/23 04:00:34;;;;;;;29.90;19.50;;;2.10;99.90;;;;;;5018353;28;20701;-78
2022/03/23 04:03:01;;;;;;;31.70;20.27;;;2.20;99.90;;;;;;5021412;28;20587;-78
2022/03/23 04:05:28;;;;;;;29.87;20.10;;;2.30;99.90;;;;;;5017044;28;20176;-78
2022/03/23 04:07:55;;;;;;;35.60;21.73;;;2.40;99.90;;;;;;5015565;28;20536;-78
2022/03/23 04:10:21;;;;;;;33.50;20.53;;;2.50;99.90;;;;;;5016031;28;20172;-78
2022/03/23 04:12:47;;;;;;;32.80;20.53;;;2.50;99.90;;;;;;5014897;28;20180;-78
2022/03/23 04:15:14;;;;;;;31.33;19.87;;;2.50;99.90;;;;;;5015082;28;20271;-79
2022/03/23 04:17:40;;;;;;;31.77;19.93;;;2.50;99.90;;;;;;5015420;28;20196;-78
2022/03/23 04:20:06;;;;;;;34.77;20.57;;;2.40;99.90;;;;;;5016092;28;20171;-80
2022/03/23 04:22:33;;;;;;;33.43;21.07;;;2.30;99.90;;;;;;5016928;28;20310;-81
2022/03/23 04:24:59;;;;;;;31.10;20.27;;;2.10;99.90;;;;;;5017032;28;20183;-81
2022/03/23 04:27:25;;;;;;;34.77;20.37;;;2.00;99.90;;;;;;5018312;28;20188;-79
2022/03/23 04:29:50;;;;;;;31.37;20.13;;;2.00;99.90;;;;;;5016968;28;20222;-81
2022/03/23 04:32:16;;;;;;;30.97;20.10;;;1.90;99.90;;;;;;5016755;28;20279;-81
2022/03/23 04:34:42;;;;;;;32.90;20.87;;;1.80;99.90;;;;;;5014933;28;20183;-80
2022/03/23 04:37:07;;;;;;;33.37;19.27;;;1.80;99.90;;;;;;5016678;28;20195;-79
2022/03/23 04:39:33;;;;;;;31.40;20.43;;;1.70;99.90;;;;;;5015516;28;20259;-80
2022/03/23 04:41:59;;;;;;;27.10;19.17;;;1.70;99.90;;;;;;5017749;28;20617;-81
2022/03/23 04:44:25;;;;;;;31.60;19.37;;;1.70;99.90;;;;;;5015743;28;20247;-80
2022/03/23 04:46:51;;;;;;;26.67;18.23;;;1.80;99.90;;;;;;5018580;28;20203;-79
2022/03/23 04:49:16;;;;;;;31.50;19.90;;;1.90;99.90;;;;;;5016802;28;20258;-76
2022/03/23 04:51:42;;;;;;;28.20;18.47;;;1.90;99.90;;;;;;5015261;28;20183;-76
2022/03/23 04:54:08;;;;;;;30.10;19.03;;;1.90;99.90;;;;;;5014616;28;20231;-76
2022/03/23 04:56:33;;;;;;;29.20;19.07;;;2.00;99.90;;;;;;5014055;28;20183;-76
2022/03/23 04:58:59;;;;;;;29.17;18.67;;;2.00;99.90;;;;;;5014031;28;20598;-76
2022/03/23 05:01:25;;;;;;;27.57;18.27;;;2.10;99.90;;;;;;5015112;28;20613;-76
2022/03/23 05:03:52;;;;;;;25.57;17.83;;;2.00;99.90;;;;;;5013844;28;20267;-76
2022/03/23 05:06:19;;;;;;;27.60;18.90;;;2.00;99.90;;;;;;5014025;28;20567;-76
2022/03/23 05:08:45;;;;;;;30.80;18.50;;;2.00;99.90;;;;;;5013784;28;20319;-77
2022/03/23 05:11:10;;;;;;;30.50;19.60;;;2.10;99.90;;;;;;5013511;28;20198;-77
2022/03/23 05:13:36;;;;;;;29.10;19.87;;;2.10;99.90;;;;;;5014938;28;20723;-77
2022/03/23 05:16:03;;;;;;;32.27;19.57;;;2.00;99.90;;;;;;5014752;28;20179;-77
2022/03/23 05:18:29;;;;;;;28.77;19.87;;;1.90;99.90;;;;;;5014648;28;20227;-76
2022/03/23 05:20:55;;;;;;;32.90;19.73;;;1.80;99.90;;;;;;5016601;28;20222;-76
2022/03/23 05:23:21;;;;;;;30.83;19.47;;;1.80;99.90;;;;;;5014958;28;20635;-76
2022/03/23 05:25:47;;;;;;;29.77;21.17;;;1.70;99.90;;;;;;5015299;28;20164;-76
2022/03/23 05:28:13;;;;;;;28.20;19.43;;;1.80;99.90;;;;;;5014175;28;20257;-77
2022/03/23 05:30:39;;;;;;;29.60;19.57;;;1.80;99.90;;;;;;5014149;28;20615;-77
2022/03/23 05:33:05;;;;;;;34.07;20.10;;;1.90;99.90;;;;;;5013837;28;20263;-76
2022/03/23 05:35:31;;;;;;;33.27;20.47;;;2.00;99.90;;;;;;5014066;28;20321;-76
2022/03/23 05:37:57;;;;;;;31.93;20.27;;;1.90;99.90;;;;;;5015165;28;20227;-76
2022/03/23 05:40:23;;;;;;;34.47;21.50;;;1.80;99.90;;;;;;5014239;28;20187;-76
2022/03/23 05:42:50;;;;;;;35.40;21.80;;;1.70;99.90;;;;;;5015141;28;20198;-76
2022/03/23 05:45:16;;;;;;;36.00;21.87;;;1.60;99.90;;;;;;5014102;28;20187;-73
2022/03/23 05:47:42;;;;;;;34.23;21.33;;;1.70;99.90;;;;;;5015947;28;20196;-73
2022/03/23 05:50:09;;;;;;;31.77;21.10;;;1.70;99.90;;;;;;5015584;28;20181;-73
2022/03/23 05:52:40;;;;;;;32.50;19.97;;;1.70;99.90;;;;;;5014891;28;20238;-73
2022/03/23 05:55:07;;;;;;;34.60;21.10;;;1.70;99.90;;;;;;5013211;28;20540;-75
2022/03/23 05:57:33;;;;;;;35.07;21.77;;;1.70;99.90;;;;;;5017423;28;20735;-77
2022/03/23 05:59:59;;;;;;;34.40;21.37;;;1.70;99.90;;;;;;5017931;28;20560;-77
2022/03/23 06:02:25;;;;;;;34.23;21.63;;;1.70;99.90;;;;;;5017763;28;20214;-77
2022/03/23 06:04:51;;;;;;;29.73;20.07;;;1.70;99.90;;;;;;5017613;28;20193;-77
2022/03/23 06:07:17;;;;;;;34.93;21.23;;;1.70;99.90;;;;;;5016051;28;20219;-77
2022/03/23 06:09:44;;;;;;;33.77;20.03;;;1.70;99.90;;;;;;5017282;28;20204;-77
2022/03/23 06:12:12;;;;;;;30.17;19.43;;;1.80;99.90;;;;;;5018488;28;20183;-77
2022/03/23 06:14:38;;;;;;;34.80;20.00;;;1.70;99.90;;;;;;5020019;28;20283;-77
2022/03/23 06:17:06;;;;;;;33.50;19.73;;;1.70;99.90;;;;;;5019281;28;20195;-77
2022/03/23 06:19:31;;;;;;;27.13;19.00;;;1.80;99.90;;;;;;5020121;28;20180;-77
2022/03/23 06:21:57;;;;;;;31.73;21.03;;;1.70;99.90;;;;;;5018684;28;20242;-77
2022/03/23 06:24:23;;;;;;;32.13;20.47;;;1.80;99.90;;;;;;5019339;28;20183;-77
2022/03/23 06:26:48;;;;;;;33.33;19.23;;;1.90;99.90;;;;;;5021785;28;20302;-77
2022/03/23 06:29:14;;;;;;;28.23;19.47;;;2.00;99.90;;;;;;5003534;28;20176;-77
2022/03/23 06:31:40;;;;;;;35.13;20.03;;;2.00;99.90;;;;;;5019114;28;20190;-77
2022/03/23 06:34:07;;;;;;;30.23;20.20;;;2.10;99.90;;;;;;5021141;28;20179;-77
2022/03/23 06:36:34;;;;;;;31.00;19.47;;;2.20;99.90;;;;;;5020086;28;20187;-77
2022/03/23 06:39:00;;;;;;;32.03;20.63;;;2.40;99.90;;;;;;5019054;28;20242;-75
2022/03/23 06:41:25;;;;;;;30.77;20.70;;;2.50;99.90;;;;;;5020462;28;20207;-75
2022/03/23 06:43:51;;;;;;;32.90;19.43;;;2.60;99.90;;;;;;5019981;28;20176;-75
2022/03/23 06:46:17;;;;;;;35.60;21.10;;;2.60;99.90;;;;;;5018275;28;20172;-77
2022/03/23 06:48:42;;;;;;;29.20;19.70;;;2.80;99.90;;;;;;5016092;28;20214;-77
2022/03/23 06:51:09;;;;;;;32.13;20.40;;;2.80;99.90;;;;;;5016350;28;20179;-76
2022/03/23 06:53:34;;;;;;;28.13;19.43;;;2.90;99.90;;;;;;5018916;28;20286;-79
2022/03/23 06:56:00;;;;;;;30.30;19.77;;;3.00;99.90;;;;;;5018485;28;20179;-79
2022/03/23 06:58:26;;;;;;;32.57;21.20;;;3.10;99.90;;;;;;5018766;28;20203;-79
2022/03/23 07:00:51;;;;;;;30.27;20.57;;;3.30;99.90;;;;;;5018179;28;20199;-79
2022/03/23 07:03:17;;;;;;;32.23;20.57;;;3.50;99.90;;;;;;5000766;28;20542;-79
2022/03/23 07:05:43;;;;;;;32.07;20.90;;;3.70;99.90;;;;;;5017238;28;20302;-79
2022/03/23 07:10:52;;;;;;;30.43;20.73;;;4.00;99.90;;;;;;5019295;28;20179;-79
2022/03/23 07:13:18;;;;;;;34.07;19.77;;;4.20;99.90;;;;;;5016992;28;20183;-79
2022/03/23 07:15:46;;;;;;;30.10;20.33;;;4.40;99.90;;;;;;5018145;28;20599;-79
2022/03/23 07:18:13;;;;;;;27.43;18.60;;;4.60;99.90;;;;;;5016965;28;20232;-80
2022/03/23 07:20:38;;;;;;;29.07;20.37;;;4.80;99.90;;;;;;5016562;28;20207;-79
2022/03/23 07:23:04;;;;;;;27.43;19.70;;;4.90;99.90;;;;;;5016598;28;20190;-79
2022/03/23 07:25:30;;;;;;;30.73;20.13;;;5.00;99.90;;;;;;5000949;28;20229;-79
2022/03/23 07:27:56;;;;;;;32.03;20.20;;;5.10;99.90;;;;;;5018036;28;20199;-80
2022/03/23 07:30:23;;;;;;;33.40;19.80;;;5.20;99.90;;;;;;5016858;28;20243;-80
2022/03/23 07:32:51;;;;;;;30.07;20.20;;;5.40;99.90;;;;;;5017755;28;20199;-80
2022/03/23 07:35:17;;;;;;;28.67;20.37;;;5.50;99.90;;;;;;5016871;28;20179;-80
2022/03/23 07:37:43;;;;;;;31.67;18.83;;;5.60;99.90;;;;;;5019256;28;20681;-80
2022/03/23 07:40:09;;;;;;;27.80;19.60;;;5.70;99.90;;;;;;5018329;28;20234;-80
2022/03/23 07:42:35;;;;;;;29.37;20.13;;;5.80;99.90;;;;;;5015812;28;20211;-80
2022/03/23 07:45:00;;;;;;;32.53;18.97;;;6.10;99.90;;;;;;5015861;28;20230;-80
2022/03/23 07:47:26;;;;;;;25.27;18.63;;;6.30;99.90;;;;;;5015355;28;20203;-80
2022/03/23 07:49:52;;;;;;;27.73;19.17;;;6.40;99.90;;;;;;5017315;28;20179;-80
2022/03/23 07:52:20;;;;;;;32.13;19.20;;;6.60;99.90;;;;;;5017162;28;20176;-80
2022/03/23 07:54:46;;;;;;;29.03;18.47;;;6.70;99.90;;;;;;5021005;28;20160;-80
2022/03/23 07:57:12;;;;;;;30.53;19.00;;;7.00;99.90;;;;;;5019543;28;20210;-80
2022/03/23 07:59:39;;;;;;;31.60;20.77;;;7.10;99.90;;;;;;5015545;28;20215;-80
2022/03/23 08:02:05;;;;;;;32.47;20.07;;;7.20;99.90;;;;;;5015148;28;20622;-79
2022/03/23 08:04:30;;;;;;;24.90;18.53;;;7.40;99.90;;;;;;5015814;28;20182;-79
2022/03/23 08:06:57;;;;;;;28.50;17.97;;;7.70;99.90;;;;;;5016746;28;20220;-79
2022/03/23 08:09:22;;;;;;;27.37;18.47;;;7.70;99.90;;;;;;5016661;28;20182;-79
2022/03/23 08:11:48;;;;;;;26.40;18.27;;;7.70;99.90;;;;;;5020994;28;20693;-80
2022/03/23 08:14:14;;;;;;;27.20;18.63;;;7.90;99.90;;;;;;5016059;28;20180;-80
2022/03/23 08:16:40;;;;;;;28.63;17.63;;;8.00;99.90;;;;;;5015360;28;20179;-80
2022/03/23 08:19:05;;;;;;;29.53;19.80;;;8.10;99.90;;;;;;5015384;28;20187;-80
2022/03/23 08:21:32;;;;;;;28.37;19.03;;;8.30;99.90;;;;;;5015857;28;20230;-79
2022/03/23 08:23:58;;;;;;;28.63;17.90;;;8.70;99.90;;;;;;5015791;28;20180;-79
2022/03/23 08:26:24;;;;;;;26.73;18.00;;;9.50;99.90;;;;;;5015123;28;20172;-79
2022/03/23 08:29:02;;;;;;;29.10;18.37;;;10.70;99.90;;;;;;5015924;28;20735;-80
2022/03/23 08:31:28;;;;;;;23.55;16.45;;;12.30;99.90;;;;;;5017282;28;20180;-80
2022/03/23 08:33:54;;;;;;;23.92;16.45;;;13.90;99.90;;;;;;5017660;28;20558;-80
2022/03/23 08:36:19;;;;;;;22.55;15.70;;;15.00;99.90;;;;;;5019440;28;20183;-80
2022/03/23 08:38:45;;;;;;;25.33;17.42;;;15.60;99.90;;;;;;5020810;28;20204;-80
2022/03/23 08:41:12;;;;;;;20.10;15.30;;;16.20;99.90;;;;;;5019964;28;20253;-80
2022/03/23 08:43:38;;;;;;;21.58;15.93;;;16.80;99.90;;;;;;5017178;28;20187;-80
2022/03/23 08:46:04;;;;;;;22.20;15.75;;;17.50;99.90;;;;;;5017438;28;20172;-80
2022/03/23 08:48:30;;;;;;;19.92;16.05;;;18.10;99.90;;;;;;5016511;28;20203;-80
2022/03/23 08:50:55;;;;;;;21.13;16.75;;;18.00;99.90;;;;;;5016763;28;20180;-80
2022/03/23 08:53:23;;;;;;;19.98;16.38;;;17.80;99.90;;;;;;5017730;28;20582;-80
2022/03/23 08:55:48;;;;;;;22.88;16.35;;;18.20;99.90;;;;;;5016267;28;20187;-80
2022/03/23 08:58:14;;;;;;;21.00;15.98;;;19.00;99.90;;;;;;5014343;28;20678;-80
2022/03/23 09:00:41;;;;;;;19.98;17.10;;;19.30;99.90;;;;;;5013820;28;20693;-80
2022/03/23 09:03:07;;;;;;;30.05;17.02;;;18.90;99.90;;;;;;5015535;28;20172;-80
2022/03/23 09:05:32;;;;;;;22.08;15.77;;;18.30;99.90;;;;;;5014221;28;20196;-80
2022/03/23 09:07:59;;;;;;;22.08;16.60;;;19.00;99.90;;;;;;5014113;28;20200;-80
2022/03/23 09:10:24;;;;;;;23.70;16.83;;;19.40;99.90;;;;;;5018361;28;20203;-80
2022/03/23 09:12:50;;;;;;;24.23;17.00;;;19.20;99.90;;;;;;5016164;28;20179;-80
2022/03/23 09:15:17;;;;;;;24.73;16.55;;;19.40;99.90;;;;;;5017150;28;20564;-80
2022/03/23 09:17:44;;;;;;;22.38;17.08;;;19.30;99.90;;;;;;5017006;28;20682;-80
2022/03/23 09:20:12;;;;;;;20.60;16.40;;;18.90;99.90;;;;;;4997952;28;20184;-80
2022/03/23 09:22:41;;;;;;;22.13;17.35;;;18.80;99.90;;;;;;5015684;28;20279;-80
2022/03/23 09:25:09;;;;;;;21.20;16.30;;;18.60;99.90;;;;;;5016325;28;20638;-80
2022/03/23 09:27:40;;;;;;;22.85;17.73;;;18.50;99.90;;;;;;5014888;28;20225;-80
2022/03/23 09:30:07;;;;;;;25.63;17.83;;;18.40;99.90;;;;;;5015737;28;20187;-80
2022/03/23 09:32:33;;;;;;;21.40;16.85;;;18.10;99.90;;;;;;5018954;28;20207;-80
2022/03/23 09:34:59;;;;;;;23.02;16.85;;;17.70;99.90;;;;;;5018944;28;20218;-80
2022/03/23 09:40:09;;;;;;;23.63;17.58;;;17.40;99.90;;;;;;5019040;28;20170;-80
2022/03/23 09:42:35;;;;;;;22.52;17.92;;;17.10;99.90;;;;;;5017462;28;20199;-80
2022/03/23 09:45:01;;;;;;;22.35;17.00;;;16.90;99.90;;;;;;5017295;28;20183;-80
2022/03/23 09:47:27;;;;;;;23.15;16.80;;;16.80;99.90;;;;;;5017733;28;20617;-81
2022/03/23 09:49:53;;;;;;;22.92;17.77;;;16.80;99.90;;;;;;5017404;28;20613;-80
2022/03/23 09:52:19;;;;;;;22.15;17.00;;;16.70;99.90;;;;;;5000955;28;20720;-80
2022/03/23 09:54:45;;;;;;;24.15;17.35;;;16.80;99.90;;;;;;5018409;28;20202;-80
2022/03/23 09:57:13;;;;;;;28.08;18.00;;;16.70;99.90;;;;;;5016767;28;20210;-80
2022/03/23 09:59:40;;;;;;;21.17;16.08;;;16.70;99.90;;;;;;5019340;28;20230;-80
2022/03/23 10:02:05;;;;;;;25.20;16.77;;;16.70;99.90;;;;;;5017088;28;20211;-80
2022/03/23 10:04:49;;;;;;;22.67;16.38;;;16.70;99.90;;;;;;5018820;28;20278;-80
2022/03/23 10:07:41;;;;;;;24.80;15.90;;;16.70;99.90;;;;;;5000318;28;20243;-81
2022/03/23 10:10:37;;;;;;;19.63;14.40;;;16.70;99.90;;;;;;5016832;28;20176;-81
2022/03/23 10:13:40;;;;;;;20.30;14.95;;;16.60;99.90;;;;;;5000968;28;20546;-81
2022/03/23 10:16:34;;;;;;;16.90;13.38;;;16.80;99.90;;;;;;5000429;28;20183;-80
2022/03/23 10:19:19;;;;;;;21.52;14.15;;;17.00;99.90;;;;;;5017636;28;20213;-81
2022/03/23 10:21:45;;;;;;;17.30;13.80;;;17.20;99.90;;;;;;5018210;28;20195;-81
2022/03/23 10:24:10;;;;;;;18.10;13.65;;;17.30;99.90;;;;;;5018072;28;20239;-81
2022/03/23 10:26:37;;;;;;;21.25;13.70;;;17.40;99.90;;;;;;5018105;28;20176;-81
2022/03/23 10:29:10;;;;;;;18.58;14.10;;;17.50;99.90;;;;;;5017977;28;20199;-81
2022/03/23 10:31:36;;;;;;;18.48;15.02;;;17.50;99.90;;;;;;5016535;28;20179;-81
2022/03/23 10:34:08;;;;;;;19.75;13.07;;;17.60;99.90;;;;;;5016545;28;20198;-81
2022/03/23 10:36:54;;;;;;;20.70;14.48;;;17.60;99.90;;;;;;5016997;28;20664;-81
2022/03/23 10:39:27;;;;;;;19.10;14.43;;;17.70;99.90;;;;;;5017873;28;20160;-80
2022/03/23 10:42:05;;;;;;;21.58;13.75;;;17.70;99.90;;;;;;5016967;28;20224;-80
2022/03/23 10:44:39;;;;;;;22.52;13.57;;;17.70;99.90;;;;;;5016052;28;20172;-80
2022/03/23 10:47:05;;;;;;;16.15;12.88;;;17.90;99.90;;;;;;5018005;28;20203;-81
2022/03/23 10:49:38;;;;;;;19.00;14.20;;;18.00;99.90;;;;;;5017528;28;20172;-81
2022/03/23 10:52:16;;;;;;;18.45;14.15;;;18.10;99.90;;;;;;5016500;28;20195;-81
2022/03/23 10:55:05;;;;;;;15.65;12.30;;;18.30;99.90;;;;;;5017910;28;20160;-81
2022/03/23 10:58:01;;;;;;;18.50;12.95;;;18.50;99.90;;;;;;5016609;28;20196;-81
2022/03/23 11:00:37;;;;;;;17.30;12.07;;;18.60;99.90;;;;;;4999755;28;20171;-80
2022/03/23 11:03:04;;;;;;;18.70;11.43;;;18.80;99.90;;;;;;5017791;28;20263;-80
2022/03/23 11:05:33;;;;;;;15.95;12.70;;;19.00;99.90;;;;;;5018041;28;20199;-80
2022/03/23 11:08:14;;;;;;;15.77;12.43;;;19.10;99.90;;;;;;5017576;28;20721;-81
2022/03/23 11:16:28;;;;;;;16.20;12.05;;;19.70;99.90;;;;;;5017704;28;20218;-81
2022/03/23 11:19:10;;;;;;;18.90;12.68;;;20.00;99.90;;;;;;5015471;28;20203;-81
2022/03/23 11:22:12;;;;;;;20.05;13.88;;;20.20;99.90;;;;;;4998950;28;20206;-81
2022/03/23 11:24:42;;;;;;;17.52;11.93;;;19.70;99.90;;;;;;5021177;28;20167;-80
2022/03/23 11:27:18;;;;;;;16.23;12.25;;;19.70;99.90;;;;;;5019252;28;20196;-81
2022/03/23 11:29:46;;;;;;;16.83;12.82;;;20.00;99.90;;;;;;5018539;28;20175;-81
2022/03/23 11:32:38;;;;;;;16.38;11.30;;;20.30;99.90;;;;;;5019328;28;20186;-81
2022/03/23 11:35:06;;;;;;;18.52;13.70;;;20.50;99.90;;;;;;5019425;28;20160;-81
2022/03/23 11:37:34;;;;;;;16.77;11.73;;;20.80;99.90;;;;;;5018114;28;20191;-81
2022/03/23 11:40:00;;;;;;;15.75;12.27;;;21.10;99.90;;;;;;5015760;28;20187;-81
2022/03/23 11:42:27;;;;;;;17.73;11.80;;;21.30;99.90;;;;;;5016315;28;20294;-81
2022/03/23 11:44:54;;;;;;;15.95;11.95;;;21.50;99.90;;;;;;5017615;28;20176;-81
2022/03/23 11:47:38;;;;;;;15.98;11.70;;;21.60;99.90;;;;;;5017795;28;20191;-81
2022/03/23 11:50:45;;;;;;;19.25;12.52;;;21.90;99.90;;;;;;5016661;28;20218;-81
2022/03/23 11:53:27;;;;;;;14.63;11.90;;;21.90;99.90;;;;;;5005765;28;20278;-81
2022/03/23 11:55:54;;;;;;;17.83;13.15;;;21.80;97.40;;;;;;5000339;28;20262;-81
2022/03/23 11:58:31;;;;;;;16.17;11.95;;;21.90;97.70;;;;;;5017852;28;20267;-81
2022/03/23 12:01:10;;;;;;;16.48;12.25;;;21.90;97.30;;;;;;5018089;28;20275;-81
2022/03/23 12:04:02;;;;;;;14.10;11.40;;;22.10;98.80;;;;;;5016373;28;20247;-81
2022/03/23 12:06:42;;;;;;;15.18;11.98;;;22.40;98.50;;;;;;5018515;28;20184;-81
2022/03/23 12:09:08;;;;;;;21.00;12.73;;;22.90;98.30;;;;;;5017075;28;20619;-82
2022/03/23 12:11:41;;;;;;;17.92;13.02;;;22.90;96.30;;;;;;5019060;28;20603;-82
2022/03/23 12:14:22;;;;;;;23.23;13.25;;;23.10;96.10;;;;;;4999492;28;20234;-81
2022/03/23 12:16:51;;;;;;;17.00;12.07;;;23.20;96.20;;;;;;5016308;28;20186;-82
2022/03/23 12:19:24;;;;;;;18.05;13.30;;;23.30;95.80;;;;;;5019368;28;20230;-82
2022/03/23 12:22:06;;;;;;;20.88;13.40;;;23.00;94.80;;;;;;5021320;28;20282;-82
2022/03/23 12:24:41;;;;;;;25.48;14.70;;;22.70;94.80;;;;;;5001618;28;20227;-82
2022/03/23 12:27:32;;;;;;;21.55;12.50;;;22.80;95.80;;;;;;5003594;28;20666;-82
2022/03/23 12:30:01;;;;;;;24.35;14.32;;;23.20;92.90;;;;;;5001824;28;20184;-82
2022/03/23 12:32:37;;;;;;;18.38;13.25;;;23.10;92.70;;;;;;5016860;28;20168;-82
2022/03/23 12:35:03;;;;;;;16.00;12.23;;;23.20;93.90;;;;;;5016065;28;20180;-82
2022/03/23 12:37:39;;;;;;;17.52;13.60;;;23.50;93.80;;;;;;5014082;28;20597;-82
2022/03/23 12:40:09;;;;;;;18.90;13.88;;;23.00;92.80;;;;;;5015801;28;20188;-81
2022/03/23 12:42:41;;;;;;;23.10;13.25;;;22.50;94.20;;;;;;5015454;28;20214;-81
2022/03/23 12:45:10;;;;;;;16.67;13.15;;;22.70;93.80;;;;;;5014356;28;20172;-81
2022/03/23 12:47:39;;;;;;;19.27;14.20;;;22.60;94.10;;;;;;5015624;28;20568;-82
2022/03/23 12:58:38;;;;;;;16.95;13.30;;;22.50;93.00;;;;;;5016416;28;20279;-82
2022/03/23 13:01:18;;;;;;;21.00;14.45;;;23.10;94.20;;;;;;5015268;28;20231;-82
2022/03/23 13:03:44;;;;;;;19.00;13.80;;;23.80;94.40;;;;;;5015588;28;20503;-82
2022/03/23 13:06:11;;;;;;;20.67;14.38;;;24.30;93.90;;;;;;4997582;28;20295;-82
2022/03/23 13:08:48;;;;;;;19.65;14.52;;;23.70;90.70;;;;;;5014463;28;20253;-82